createdAt,value
2018-05-01T00:00:47.970Z,0
2018-05-01T00:01:50.364Z,0
2018-05-01T00:02:52.737Z,0
2018-05-01T00:03:55.120Z,0
2018-05-01T00:04:57.513Z,0
2018-05-01T00:05:59.892Z,0
2018-05-01T00:07:02.273Z,0
2018-05-01T00:08:04.943Z,0
2018-05-01T00:09:07.324Z,0
2018-05-01T00:10:09.717Z,0
2018-05-01T00:11:12.484Z,0
2018-05-01T00:12:14.859Z,0
2018-05-01T00:13:17.246Z,0
2018-05-01T00:14:19.637Z,0
2018-05-01T00:15:22.290Z,0
2018-05-01T00:16:24.678Z,0
2018-05-01T00:17:27.059Z,0
2018-05-01T00:18:29.443Z,0
2018-05-01T00:19:31.822Z,0
2018-05-01T00:20:34.190Z,0
2018-05-01T00:21:36.580Z,0
2018-05-01T00:22:38.957Z,0
2018-05-01T00:23:41.358Z,0
2018-05-01T00:24:43.736Z,0
2018-05-01T00:25:46.120Z,0
2018-05-01T00:26:48.505Z,0
2018-05-01T00:27:50.887Z,0
2018-05-01T00:28:53.267Z,0
2018-05-01T00:29:55.654Z,0
2018-05-01T00:30:58.027Z,0
2018-05-01T00:32:00.990Z,0
2018-05-01T00:33:03.378Z,0
2018-05-01T00:34:06.038Z,0
2018-05-01T00:35:08.704Z,0
2018-05-01T00:36:11.094Z,0
2018-05-01T00:37:13.756Z,0
2018-05-01T00:38:16.137Z,0
2018-05-01T00:39:19.469Z,0
2018-05-01T00:40:21.855Z,0
2018-05-01T00:41:24.619Z,0
2018-05-01T00:42:27.004Z,0
2018-05-01T00:43:29.374Z,0
2018-05-01T00:44:32.427Z,0
2018-05-01T00:45:34.813Z,0
2018-05-01T00:46:37.196Z,0
2018-05-01T00:47:39.572Z,0
2018-05-01T00:48:41.950Z,0
2018-05-01T00:49:44.333Z,0
2018-05-01T00:50:46.715Z,0
2018-05-01T00:51:49.168Z,0
2018-05-01T00:52:51.488Z,0
2018-05-01T00:53:53.868Z,0
2018-05-01T00:54:56.247Z,0
2018-05-01T00:55:58.633Z,0
2018-05-01T00:57:01.007Z,0
2018-05-01T00:58:03.391Z,0
2018-05-01T00:59:05.779Z,0
2018-05-01T01:00:08.156Z,0
2018-05-01T01:01:10.532Z,0
2018-05-01T01:02:13.228Z,0
2018-05-01T01:03:15.594Z,0
2018-05-01T01:04:18.263Z,0
2018-05-01T01:05:20.641Z,0
2018-05-01T01:06:23.020Z,0
2018-05-01T01:07:25.792Z,0
2018-05-01T01:08:28.172Z,0
2018-05-01T01:09:30.560Z,0
2018-05-01T01:10:33.227Z,0
2018-05-01T01:11:35.599Z,0
2018-05-01T01:12:37.991Z,0
2018-05-01T01:13:40.361Z,0
2018-05-01T01:14:42.741Z,0
2018-05-01T01:15:45.124Z,0
2018-05-01T01:16:47.501Z,0
2018-05-01T01:17:50.165Z,0
2018-05-01T01:18:52.538Z,0
2018-05-01T01:19:54.917Z,0
2018-05-01T01:20:57.313Z,0
2018-05-01T01:21:59.692Z,0
2018-05-01T01:23:02.743Z,0
2018-05-01T01:24:05.121Z,0
2018-05-01T01:25:07.787Z,0
2018-05-01T01:26:10.161Z,0
2018-05-01T01:27:12.835Z,0
2018-05-01T01:28:15.490Z,0
2018-05-01T01:29:17.871Z,0
2018-05-01T01:30:20.265Z,0
2018-05-01T01:31:22.635Z,0
2018-05-01T01:32:25.306Z,0
2018-05-01T01:33:27.690Z,0
2018-05-01T01:34:30.058Z,0
2018-05-01T01:35:32.445Z,0
2018-05-01T01:36:34.829Z,0
2018-05-01T01:37:37.210Z,0
2018-05-01T01:38:39.587Z,0
2018-05-01T01:39:41.989Z,0
2018-05-01T01:40:44.367Z,0
2018-05-01T01:41:46.758Z,0
2018-05-01T01:42:49.127Z,0
2018-05-01T01:43:51.508Z,0
2018-05-01T01:44:53.894Z,0
2018-05-01T01:45:56.660Z,0
2018-05-01T01:46:59.050Z,0
2018-05-01T01:48:01.429Z,0
2018-05-01T01:49:03.816Z,0
2018-05-01T01:50:06.190Z,0
2018-05-01T01:51:08.560Z,0
2018-05-01T01:52:11.247Z,0
2018-05-01T01:53:13.625Z,0
2018-05-01T01:54:16.006Z,0
2018-05-01T01:55:18.674Z,0
2018-05-01T01:56:21.050Z,0
2018-05-01T01:57:23.439Z,0
2018-05-01T01:58:25.821Z,0
2018-05-01T01:59:28.200Z,0
2018-05-01T02:00:30.866Z,0
2018-05-01T02:01:33.243Z,0
2018-05-01T02:02:35.627Z,0
2018-05-01T02:03:38.644Z,0
2018-05-01T02:04:41.017Z,0
2018-05-01T02:05:43.400Z,0
2018-05-01T02:06:46.170Z,0
2018-05-01T02:07:48.547Z,0
2018-05-01T02:08:51.498Z,0
2018-05-01T02:09:53.889Z,0
2018-05-01T02:10:56.260Z,0
2018-05-01T02:11:58.925Z,0
2018-05-01T02:13:01.305Z,0
2018-05-01T02:14:03.696Z,0
2018-05-01T02:15:06.354Z,0
2018-05-01T02:16:08.748Z,0
2018-05-01T02:17:11.127Z,0
2018-05-01T02:18:13.511Z,0
2018-05-01T02:19:15.895Z,0
2018-05-01T02:20:18.560Z,0
2018-05-01T02:21:20.943Z,0
2018-05-01T02:22:23.323Z,0
2018-05-01T02:23:25.692Z,0
2018-05-01T02:24:28.079Z,0
2018-05-01T02:25:30.452Z,0
2018-05-01T02:26:32.840Z,0
2018-05-01T02:27:35.227Z,0
2018-05-01T02:28:37.606Z,0
2018-05-01T02:29:40.379Z,0
2018-05-01T02:30:42.768Z,0
2018-05-01T02:31:45.152Z,0
2018-05-01T02:32:47.536Z,0
2018-05-01T02:33:50.300Z,0
2018-05-01T02:34:53.268Z,0
2018-05-01T02:35:55.653Z,0
2018-05-01T02:36:58.025Z,0
2018-05-01T02:38:00.971Z,0
2018-05-01T02:39:03.367Z,0
2018-05-01T02:40:05.745Z,0
2018-05-01T02:41:08.894Z,0
2018-05-01T02:42:11.468Z,0
2018-05-01T02:43:14.611Z,0
2018-05-01T02:44:17.010Z,0
2018-05-01T02:45:19.964Z,0
2018-05-01T02:46:22.353Z,0
2018-05-01T02:47:25.685Z,0
2018-05-01T02:48:28.346Z,0
2018-05-01T02:49:31.287Z,0
2018-05-01T02:50:33.944Z,0
2018-05-01T02:51:36.617Z,0
2018-05-01T02:52:39.834Z,0
2018-05-01T02:53:42.793Z,0
2018-05-01T02:54:45.465Z,0
2018-05-01T02:55:47.853Z,0
2018-05-01T02:56:50.241Z,0
2018-05-01T02:57:52.632Z,0
2018-05-01T02:58:55.013Z,0
2018-05-01T02:59:57.414Z,0
2018-05-01T03:01:00.074Z,0
2018-05-01T03:02:02.482Z,0
2018-05-01T03:03:06.121Z,0
2018-05-01T03:04:08.882Z,4
2018-05-01T03:05:11.829Z,4
2018-05-01T03:06:14.208Z,0
2018-05-01T03:07:16.965Z,4
2018-05-01T03:08:19.644Z,4
2018-05-01T03:09:22.415Z,4
2018-05-01T03:10:25.079Z,8
2018-05-01T03:11:27.753Z,4
2018-05-01T03:12:30.415Z,8
2018-05-01T03:13:33.210Z,8
2018-05-01T03:14:36.538Z,12
2018-05-01T03:15:39.221Z,12
2018-05-01T03:16:41.602Z,12
2018-05-01T03:17:43.986Z,12
2018-05-01T03:18:46.381Z,12
2018-05-01T03:19:49.052Z,20
2018-05-01T03:20:51.440Z,24
2018-05-01T03:21:53.823Z,24
2018-05-01T03:22:56.200Z,28
2018-05-01T03:23:58.575Z,32
2018-05-01T03:25:00.968Z,28
2018-05-01T03:26:03.334Z,28
2018-05-01T03:27:05.997Z,32
2018-05-01T03:28:08.715Z,36
2018-05-01T03:29:11.379Z,40
2018-05-01T03:30:13.774Z,48
2018-05-01T03:31:16.809Z,52
2018-05-01T03:32:19.459Z,60
2018-05-01T03:33:21.840Z,68
2018-05-01T03:34:24.226Z,68
2018-05-01T03:35:26.899Z,76
2018-05-01T03:36:29.276Z,72
2018-05-01T03:37:32.504Z,80
2018-05-01T03:38:35.274Z,84
2018-05-01T03:39:37.940Z,92
2018-05-01T03:40:40.327Z,100
2018-05-01T03:41:42.693Z,112
2018-05-01T03:42:45.083Z,128
2018-05-01T03:43:47.747Z,144
2018-05-01T03:44:50.130Z,152
2018-05-01T03:45:53.095Z,168
2018-05-01T03:46:55.473Z,176
2018-05-01T03:47:57.856Z,176
2018-05-01T03:49:00.243Z,188
2018-05-01T03:50:02.625Z,212
2018-05-01T03:51:05.008Z,232
2018-05-01T03:52:07.385Z,256
2018-05-01T03:53:10.365Z,284
2018-05-01T03:54:12.746Z,320
2018-05-01T03:55:15.137Z,316
2018-05-01T03:56:17.504Z,312
2018-05-01T03:57:19.889Z,328
2018-05-01T03:58:22.285Z,352
2018-05-01T03:59:24.936Z,348
2018-05-01T04:00:27.322Z,328
2018-05-01T04:01:29.985Z,348
2018-05-01T04:02:32.376Z,364
2018-05-01T04:03:34.755Z,392
2018-05-01T04:04:37.142Z,388
2018-05-01T04:05:39.520Z,400
2018-05-01T04:06:42.178Z,432
2018-05-01T04:07:44.839Z,472
2018-05-01T04:08:47.508Z,492
2018-05-01T04:09:49.891Z,552
2018-05-01T04:10:52.267Z,680
2018-05-01T04:11:54.648Z,680
2018-05-01T04:12:57.025Z,692
2018-05-01T04:13:59.402Z,824
2018-05-01T04:15:01.788Z,820
2018-05-01T04:16:04.442Z,824
2018-05-01T04:17:07.105Z,804
2018-05-01T04:18:09.490Z,768
2018-05-01T04:19:12.219Z,824
2018-05-01T04:20:14.612Z,908
2018-05-01T04:21:16.979Z,924
2018-05-01T04:22:19.420Z,948
2018-05-01T04:23:21.806Z,756
2018-05-01T04:24:24.188Z,780
2018-05-01T04:25:26.660Z,696
2018-05-01T04:26:28.952Z,644
2018-05-01T04:27:31.619Z,652
2018-05-01T04:28:34.001Z,752
2018-05-01T04:29:36.375Z,908
2018-05-01T04:30:38.753Z,884
2018-05-01T04:31:41.153Z,756
2018-05-01T04:32:43.537Z,908
2018-05-01T04:33:46.193Z,1144
2018-05-01T04:34:48.867Z,1112
2018-05-01T04:35:51.247Z,1260
2018-05-01T04:36:53.633Z,1708
2018-05-01T04:37:56.014Z,1836
2018-05-01T04:38:58.387Z,2048
2018-05-01T04:40:00.765Z,2560
2018-05-01T04:41:03.155Z,2856
2018-05-01T04:42:05.924Z,2848
2018-05-01T04:43:08.310Z,3020
2018-05-01T04:44:10.978Z,2744
2018-05-01T04:45:13.365Z,2724
2018-05-01T04:46:15.739Z,2812
2018-05-01T04:47:18.121Z,2932
2018-05-01T04:48:20.515Z,3116
2018-05-01T04:49:22.892Z,3284
2018-05-01T04:50:25.271Z,3424
2018-05-01T04:51:27.651Z,3600
2018-05-01T04:52:30.028Z,3904
2018-05-01T04:53:32.419Z,4012
2018-05-01T04:54:34.808Z,4308
2018-05-01T04:55:37.454Z,4516
2018-05-01T04:56:39.843Z,4548
2018-05-01T04:57:42.231Z,4244
2018-05-01T04:58:44.614Z,4100
2018-05-01T04:59:46.996Z,4296
2018-05-01T05:00:49.766Z,4236
2018-05-01T05:01:52.149Z,4176
2018-05-01T05:02:54.536Z,4164
2018-05-01T05:03:56.925Z,4092
2018-05-01T05:05:00.360Z,3900
2018-05-01T05:06:02.748Z,3716
2018-05-01T05:07:05.120Z,3728
2018-05-01T05:08:07.507Z,3684
2018-05-01T05:09:09.891Z,3736
2018-05-01T05:10:12.570Z,3808
2018-05-01T05:11:14.958Z,3920
2018-05-01T05:12:17.331Z,4076
2018-05-01T05:13:19.716Z,4320
2018-05-01T05:14:22.095Z,4556
2018-05-01T05:15:24.478Z,4720
2018-05-01T05:16:26.872Z,4968
2018-05-01T05:17:29.248Z,5460
2018-05-01T05:18:31.632Z,5692
2018-05-01T05:19:34.004Z,6012
2018-05-01T05:20:36.371Z,6264
2018-05-01T05:21:39.043Z,6560
2018-05-01T05:22:41.420Z,6584
2018-05-01T05:23:44.089Z,6712
2018-05-01T05:24:46.468Z,7052
2018-05-01T05:25:48.854Z,7608
2018-05-01T05:26:51.236Z,8044
2018-05-01T05:27:53.918Z,8428
2018-05-01T05:28:56.292Z,9056
2018-05-01T05:29:58.664Z,9632
2018-05-01T05:31:01.060Z,9952
2018-05-01T05:32:04.005Z,9868
2018-05-01T05:33:06.392Z,9904
2018-05-01T05:34:09.228Z,9840
2018-05-01T05:35:11.613Z,9716
2018-05-01T05:36:14.015Z,9664
2018-05-01T05:37:16.385Z,9780
2018-05-01T05:38:18.756Z,9904
2018-05-01T05:39:21.142Z,9744
2018-05-01T05:40:23.531Z,9820
2018-05-01T05:41:25.909Z,9696
2018-05-01T05:42:28.287Z,9940
2018-05-01T05:43:30.671Z,10076
2018-05-01T05:44:33.049Z,10216
2018-05-01T05:45:35.714Z,10648
2018-05-01T05:46:38.391Z,10404
2018-05-01T05:47:40.757Z,11120
2018-05-01T05:48:43.145Z,12344
2018-05-01T05:49:45.530Z,12096
2018-05-01T05:50:48.199Z,13628
2018-05-01T05:51:50.579Z,13568
2018-05-01T05:52:52.967Z,13732
2018-05-01T05:53:55.341Z,12764
2018-05-01T05:54:57.736Z,13016
2018-05-01T05:56:00.123Z,13736
2018-05-01T05:57:02.823Z,13084
2018-05-01T05:58:05.162Z,14108
2018-05-01T05:59:07.537Z,14516
2018-05-01T06:00:10.211Z,15272
2018-05-01T06:01:12.626Z,16004
2018-05-01T06:02:14.976Z,14756
2018-05-01T06:03:17.357Z,17596
2018-05-01T06:04:19.741Z,17120
2018-05-01T06:05:22.128Z,16092
2018-05-01T06:06:24.512Z,17252
2018-05-01T06:07:26.899Z,18016
2018-05-01T06:08:29.270Z,18080
2018-05-01T06:09:32.129Z,17920
2018-05-01T06:10:34.443Z,17844
2018-05-01T06:11:36.823Z,14980
2018-05-01T06:12:39.204Z,14604
2018-05-01T06:13:41.675Z,13784
2018-05-01T06:14:43.957Z,15176
2018-05-01T06:15:46.350Z,15712
2018-05-01T06:16:48.732Z,16324
2018-05-01T06:17:51.114Z,15660
2018-05-01T06:18:53.499Z,13688
2018-05-01T06:19:56.444Z,10340
2018-05-01T06:20:58.830Z,11644
2018-05-01T06:22:01.591Z,13364
2018-05-01T06:23:05.148Z,13056
2018-05-01T06:24:07.519Z,12140
2018-05-01T06:25:10.190Z,11816
2018-05-01T06:26:12.572Z,10512
2018-05-01T06:27:14.964Z,10536
2018-05-01T06:28:17.348Z,10804
2018-05-01T06:29:19.732Z,9508
2018-05-01T06:30:22.115Z,10728
2018-05-01T06:31:24.593Z,13656
2018-05-01T06:32:27.308Z,14128
2018-05-01T06:33:29.679Z,14548
2018-05-01T06:34:32.072Z,13872
2018-05-01T06:35:34.833Z,13384
2018-05-01T06:36:37.217Z,15116
2018-05-01T06:37:39.596Z,13524
2018-05-01T06:38:41.979Z,15232
2018-05-01T06:39:44.368Z,16140
2018-05-01T06:40:46.750Z,17924
2018-05-01T06:41:49.130Z,19776
2018-05-01T06:42:51.503Z,18656
2018-05-01T06:43:54.193Z,16176
2018-05-01T06:44:56.888Z,13640
2018-05-01T06:45:59.271Z,8944
2018-05-01T06:47:02.231Z,8584
2018-05-01T06:48:04.902Z,8632
2018-05-01T06:49:07.291Z,9300
2018-05-01T06:50:09.955Z,6888
2018-05-01T06:51:12.334Z,10696
2018-05-01T06:52:14.705Z,14556
2018-05-01T06:53:17.091Z,17572
2018-05-01T06:54:19.477Z,18848
2018-05-01T06:55:21.863Z,20352
2018-05-01T06:56:24.624Z,23872
2018-05-01T06:57:27.002Z,23776
2018-05-01T06:58:29.377Z,21888
2018-05-01T06:59:31.768Z,19552
2018-05-01T07:00:34.145Z,19296
2018-05-01T07:01:36.519Z,15128
2018-05-01T07:02:38.904Z,12316
2018-05-01T07:03:41.681Z,13624
2018-05-01T07:04:44.069Z,11932
2018-05-01T07:05:46.742Z,12152
2018-05-01T07:06:49.116Z,17188
2018-05-01T07:07:52.168Z,17840
2018-05-01T07:08:54.575Z,15440
2018-05-01T07:09:56.979Z,18036
2018-05-01T07:10:59.667Z,10952
2018-05-01T07:12:02.061Z,6852
2018-05-01T07:13:04.448Z,5596
2018-05-01T07:14:06.829Z,8884
2018-05-01T07:15:09.217Z,12776
2018-05-01T07:16:11.609Z,9784
2018-05-01T07:17:14.397Z,9132
2018-05-01T07:18:16.768Z,6772
2018-05-01T07:19:19.164Z,5808
2018-05-01T07:20:21.538Z,6208
2018-05-01T07:21:23.934Z,7296
2018-05-01T07:22:26.322Z,8324
2018-05-01T07:23:28.698Z,9212
2018-05-01T07:24:31.090Z,12428
2018-05-01T07:25:33.476Z,12528
2018-05-01T07:26:35.850Z,12488
2018-05-01T07:27:38.236Z,10616
2018-05-01T07:28:41.006Z,9152
2018-05-01T07:29:43.387Z,10948
2018-05-01T07:30:45.774Z,9088
2018-05-01T07:31:48.164Z,8076
2018-05-01T07:32:50.536Z,6880
2018-05-01T07:33:53.219Z,5528
2018-05-01T07:34:55.600Z,8904
2018-05-01T07:35:57.988Z,11688
2018-05-01T07:37:00.366Z,7500
2018-05-01T07:38:03.030Z,7992
2018-05-01T07:39:05.412Z,10324
2018-05-01T07:40:07.810Z,10600
2018-05-01T07:41:10.194Z,14828
2018-05-01T07:42:12.574Z,16764
2018-05-01T07:43:15.251Z,11384
2018-05-01T07:44:17.625Z,12696
2018-05-01T07:45:20.008Z,15908
2018-05-01T07:46:22.392Z,15052
2018-05-01T07:47:25.052Z,18172
2018-05-01T07:48:27.439Z,14560
2018-05-01T07:49:29.818Z,11996
2018-05-01T07:50:32.198Z,15784
2018-05-01T07:51:34.904Z,15764
2018-05-01T07:52:37.672Z,14284
2018-05-01T07:53:40.048Z,15540
2018-05-01T07:54:42.436Z,18752
2018-05-01T07:55:44.820Z,17208
2018-05-01T07:56:47.203Z,14072
2018-05-01T07:57:49.705Z,16116
2018-05-01T07:58:52.125Z,13456
2018-05-01T07:59:54.506Z,13244
2018-05-01T08:00:56.907Z,12988
2018-05-01T08:01:59.312Z,11464
2018-05-01T08:03:01.759Z,19072
2018-05-01T08:04:04.137Z,20000
2018-05-01T08:05:06.801Z,14664
2018-05-01T08:06:09.190Z,21152
2018-05-01T08:07:11.567Z,20928
2018-05-01T08:08:13.939Z,13436
2018-05-01T08:09:16.611Z,12440
2018-05-01T08:10:18.990Z,7356
2018-05-01T08:11:21.649Z,7044
2018-05-01T08:12:24.026Z,8380
2018-05-01T08:13:26.414Z,8356
2018-05-01T08:14:29.081Z,7400
2018-05-01T08:15:31.740Z,8580
2018-05-01T08:16:34.124Z,8148
2018-05-01T08:17:36.517Z,10624
2018-05-01T08:18:38.927Z,8936
2018-05-01T08:19:41.271Z,5636
2018-05-01T08:20:43.942Z,5820
2018-05-01T08:21:46.322Z,7048
2018-05-01T08:22:48.706Z,6192
2018-05-01T08:23:51.132Z,6640
2018-05-01T08:24:53.929Z,3868
2018-05-01T08:25:56.317Z,4096
2018-05-01T08:26:58.703Z,4536
2018-05-01T08:28:01.082Z,6104
2018-05-01T08:29:03.469Z,10632
2018-05-01T08:30:05.841Z,10476
2018-05-01T08:31:08.220Z,9576
2018-05-01T08:32:10.615Z,10424
2018-05-01T08:33:13.273Z,13800
2018-05-01T08:34:15.651Z,8216
2018-05-01T08:35:18.320Z,9520
2018-05-01T08:36:20.701Z,12080
2018-05-01T08:37:23.093Z,12108
2018-05-01T08:38:25.477Z,10792
2018-05-01T08:39:27.856Z,8856
2018-05-01T08:40:30.264Z,8120
2018-05-01T08:41:32.659Z,7780
2018-05-01T08:42:35.045Z,8624
2018-05-01T08:43:37.475Z,9360
2018-05-01T08:44:39.860Z,10412
2018-05-01T08:45:42.583Z,9116
2018-05-01T08:46:44.972Z,8884
2018-05-01T08:47:47.361Z,8092
2018-05-01T08:48:49.834Z,7476
2018-05-01T08:49:52.207Z,9768
2018-05-01T08:50:55.167Z,9940
2018-05-01T08:51:57.541Z,10112
2018-05-01T08:53:00.209Z,11032
2018-05-01T08:54:02.593Z,10160
2018-05-01T08:55:04.970Z,8872
2018-05-01T08:56:07.364Z,8692
2018-05-01T08:57:09.749Z,8392
2018-05-01T08:58:12.124Z,7576
2018-05-01T08:59:14.510Z,6984
2018-05-01T09:00:17.164Z,8588
2018-05-01T09:01:19.547Z,10580
2018-05-01T09:02:21.936Z,12228
2018-05-01T09:03:24.312Z,9168
2018-05-01T09:04:26.976Z,8436
2018-05-01T09:05:29.361Z,10468
2018-05-01T09:06:31.744Z,7396
2018-05-01T09:07:34.153Z,5476
2018-05-01T09:08:36.542Z,5736
2018-05-01T09:09:38.932Z,5956
2018-05-01T09:10:41.626Z,7444
2018-05-01T09:11:44.298Z,7800
2018-05-01T09:12:48.284Z,6540
2018-05-01T09:13:54.902Z,10240
2018-05-01T09:14:58.803Z,8208
2018-05-01T09:16:04.467Z,8484
2018-05-01T09:17:08.269Z,8832
2018-05-01T09:18:19.047Z,9092
2018-05-01T09:19:25.141Z,9504
2018-05-01T09:20:37.812Z,8384
2018-05-01T09:21:47.501Z,7404
2018-05-01T09:22:59.140Z,8200
2018-05-01T09:24:09.804Z,8420
2018-05-01T09:25:21.095Z,7536
2018-05-01T09:26:31.915Z,7156
2018-05-01T09:27:41.687Z,7252
2018-05-01T09:28:51.723Z,6932
2018-05-01T09:30:00.244Z,7732
2018-05-01T09:31:08.978Z,7344
2018-05-01T09:32:22.666Z,9052
2018-05-01T09:33:37.838Z,7880
2018-05-01T09:34:52.368Z,7256
2018-05-01T09:36:07.818Z,8080
2018-05-01T09:37:17.789Z,7988
2018-05-01T09:38:38.867Z,10332
2018-05-01T09:39:50.300Z,9312
2018-05-01T09:41:02.160Z,9236
2018-05-01T09:42:16.090Z,8912
2018-05-01T09:43:32.416Z,9396
2018-05-01T09:44:48.050Z,11028
2018-05-01T09:46:01.734Z,8196
2018-05-01T09:47:12.759Z,12332
2018-05-01T09:48:23.354Z,10952
2018-05-01T09:49:36.427Z,8604
2018-05-01T09:50:55.455Z,10864
2018-05-01T09:52:13.890Z,12056
2018-05-01T09:53:30.788Z,11548
2018-05-01T09:54:47.671Z,13816
2018-05-01T09:56:18.417Z,12292
2018-05-01T09:57:42.649Z,10280
2018-05-01T09:59:04.077Z,10984
2018-05-01T10:00:18.520Z,10092
2018-05-01T10:01:30.051Z,10780
2018-05-01T10:02:44.620Z,10648
2018-05-01T10:03:53.042Z,11736
2018-05-01T10:05:00.641Z,11688
2018-05-01T10:06:03.992Z,10764
2018-05-01T10:07:06.463Z,13612
2018-05-01T10:08:09.930Z,14096
2018-05-01T10:09:39.251Z,10948
2018-05-01T10:10:53.443Z,10816
2018-05-01T10:12:11.517Z,9484
2018-05-01T10:13:24.610Z,9492
2018-05-01T10:14:46.453Z,9320
2018-05-01T10:16:11.064Z,7672
2018-05-01T10:17:25.323Z,8540
2018-05-01T10:18:28.772Z,9072
2018-05-01T10:19:32.129Z,8540
2018-05-01T10:20:41.201Z,8660
2018-05-01T10:21:43.621Z,7764
2018-05-01T10:22:46.010Z,7484
2018-05-01T10:23:48.956Z,7616
2018-05-01T10:24:51.609Z,8324
2018-05-01T10:25:53.995Z,7448
2018-05-01T10:26:56.382Z,7488
2018-05-01T10:27:59.047Z,7632
2018-05-01T10:29:01.795Z,8148
2018-05-01T10:30:04.176Z,8872
2018-05-01T10:31:06.558Z,8448
2018-05-01T10:32:08.947Z,7416
2018-05-01T10:33:11.335Z,7460
2018-05-01T10:34:13.712Z,8108
2018-05-01T10:35:16.097Z,8868
2018-05-01T10:36:18.475Z,9020
2018-05-01T10:37:20.858Z,8100
2018-05-01T10:38:23.228Z,8212
2018-05-01T10:39:25.613Z,7892
2018-05-01T10:40:28.001Z,7572
2018-05-01T10:41:30.375Z,9152
2018-05-01T10:42:33.154Z,9132
2018-05-01T10:43:35.812Z,7056
2018-05-01T10:44:38.196Z,7520
2018-05-01T10:45:40.678Z,7592
2018-05-01T10:46:42.951Z,8768
2018-05-01T10:47:45.339Z,9544
2018-05-01T10:48:47.711Z,8296
2018-05-01T10:49:50.096Z,8876
2018-05-01T10:50:52.483Z,11380
2018-05-01T10:51:54.859Z,11952
2018-05-01T10:52:57.252Z,10600
2018-05-01T10:54:00.601Z,12320
2018-05-01T10:55:02.976Z,11180
2018-05-01T10:56:05.362Z,10520
2018-05-01T10:57:07.737Z,12764
2018-05-01T10:58:10.485Z,9968
2018-05-01T10:59:12.864Z,11160
2018-05-01T11:00:15.249Z,10804
2018-05-01T11:01:17.621Z,11296
2018-05-01T11:02:20.019Z,10276
2018-05-01T11:03:22.389Z,9432
2018-05-01T11:04:24.773Z,9352
2018-05-01T11:05:27.436Z,9448
2018-05-01T11:06:30.096Z,9540
2018-05-01T11:07:32.790Z,10252
2018-05-01T11:08:35.167Z,11592
2018-05-01T11:09:37.552Z,11980
2018-05-01T11:10:40.600Z,10812
2018-05-01T11:11:42.983Z,12116
2018-05-01T11:12:45.947Z,15556
2018-05-01T11:13:48.333Z,12056
2018-05-01T11:14:50.713Z,11244
2018-05-01T11:15:53.097Z,12064
2018-05-01T11:16:55.481Z,11064
2018-05-01T11:17:57.865Z,11280
2018-05-01T11:19:00.243Z,9664
2018-05-01T11:20:02.911Z,11216
2018-05-01T11:21:05.296Z,12864
2018-05-01T11:22:07.675Z,11032
2018-05-01T11:23:10.057Z,11592
2018-05-01T11:24:12.437Z,11832
2018-05-01T11:25:14.809Z,11604
2018-05-01T11:26:17.409Z,10084
2018-05-01T11:27:22.144Z,9204
2018-05-01T11:28:25.192Z,9252
2018-05-01T11:29:27.573Z,7816
2018-05-01T11:30:29.959Z,10952
2018-05-01T11:31:32.333Z,11124
2018-05-01T11:32:34.720Z,12316
2018-05-01T11:33:37.106Z,11552
2018-05-01T11:34:39.484Z,9460
2018-05-01T11:35:56.899Z,9324
2018-05-01T11:36:59.293Z,7652
2018-05-01T11:38:01.934Z,10900
2018-05-01T11:39:04.310Z,8144
2018-05-01T11:40:06.702Z,10232
2018-05-01T11:41:09.072Z,12716
2018-05-01T11:42:11.450Z,7368
2018-05-01T11:43:13.829Z,6744
2018-05-01T11:44:16.208Z,7044
2018-05-01T11:45:18.585Z,6644
2018-05-01T11:46:20.982Z,7904
2018-05-01T11:47:23.634Z,8936
2018-05-01T11:48:26.016Z,6984
2018-05-01T11:49:29.447Z,6164
2018-05-01T11:50:37.054Z,6528
2018-05-01T11:51:39.462Z,5436
2018-05-01T11:52:42.111Z,5876
2018-05-01T11:53:44.855Z,4984
2018-05-01T11:54:47.175Z,4908
2018-05-01T11:55:49.548Z,4760
2018-05-01T11:56:51.924Z,4244
2018-05-01T11:57:54.301Z,4828
2018-05-01T11:58:56.674Z,4704
2018-05-01T11:59:59.059Z,4756
2018-05-01T12:01:01.743Z,7224
2018-05-01T12:02:04.402Z,13228
2018-05-01T12:03:06.787Z,10292
2018-05-01T12:04:09.156Z,7304
2018-05-01T12:05:11.536Z,6308
2018-05-01T12:06:14.200Z,6732
2018-05-01T12:07:16.594Z,5200
2018-05-01T12:08:19.254Z,5308
2018-05-01T12:09:21.642Z,6492
2018-05-01T12:10:24.299Z,6216
2018-05-01T12:11:26.690Z,6296
2018-05-01T12:12:29.080Z,8260
2018-05-01T12:13:31.442Z,6004
2018-05-01T12:14:33.825Z,4412
2018-05-01T12:15:36.583Z,4536
2018-05-01T12:16:38.969Z,4516
2018-05-01T12:17:41.339Z,4448
2018-05-01T12:18:43.732Z,4812
2018-05-01T12:19:46.392Z,5372
2018-05-01T12:20:49.079Z,4348
2018-05-01T12:21:51.568Z,4492
2018-05-01T12:22:54.037Z,4660
2018-05-01T12:23:56.419Z,4212
2018-05-01T12:24:59.081Z,4120
2018-05-01T12:26:01.730Z,3764
2018-05-01T12:27:04.670Z,4124
2018-05-01T12:28:07.053Z,4488
2018-05-01T12:29:09.426Z,5028
2018-05-01T12:30:12.419Z,6812
2018-05-01T12:31:15.334Z,5516
2018-05-01T12:32:17.714Z,5216
2018-05-01T12:33:20.101Z,5012
2018-05-01T12:34:22.860Z,5300
2018-05-01T12:35:25.239Z,4396
2018-05-01T12:36:27.988Z,4008
2018-05-01T12:37:30.673Z,4688
2018-05-01T12:38:33.337Z,4844
2018-05-01T12:39:35.701Z,4620
2018-05-01T12:40:38.389Z,4608
2018-05-01T12:41:40.805Z,5172
2018-05-01T12:42:43.476Z,5464
2018-05-01T12:43:46.151Z,5848
2018-05-01T12:44:48.527Z,6380
2018-05-01T12:45:51.188Z,5264
2018-05-01T12:46:53.601Z,5220
2018-05-01T12:47:55.966Z,4500
2018-05-01T12:48:58.366Z,6040
2018-05-01T12:50:00.732Z,4788
2018-05-01T12:51:03.400Z,4308
2018-05-01T12:52:06.083Z,5016
2018-05-01T12:53:08.487Z,4740
2018-05-01T12:54:10.914Z,3840
2018-05-01T12:55:13.574Z,3524
2018-05-01T12:56:15.950Z,3260
2018-05-01T12:57:18.326Z,3236
2018-05-01T12:58:20.828Z,3256
2018-05-01T12:59:23.218Z,3612
2018-05-01T13:00:25.715Z,3980
2018-05-01T13:01:28.101Z,3604
2018-05-01T13:02:30.485Z,3432
2018-05-01T13:03:33.142Z,3448
2018-05-01T13:04:35.519Z,3772
2018-05-01T13:05:38.352Z,3300
2018-05-01T13:06:40.725Z,3104
2018-05-01T13:07:43.380Z,3744
2018-05-01T13:08:45.758Z,3684
2018-05-01T13:11:20.928Z,3336
2018-05-01T13:12:23.402Z,3364
2018-05-01T13:13:25.877Z,3312
2018-05-01T13:14:28.331Z,3340
2018-05-01T13:15:30.773Z,3648
2018-05-01T13:16:33.206Z,3908
2018-05-01T13:17:35.650Z,4304
2018-05-01T13:18:38.123Z,4736
2018-05-01T13:19:41.863Z,4720
2018-05-01T13:20:44.293Z,5172
2018-05-01T13:21:47.265Z,5132
2018-05-01T13:22:50.307Z,5012
2018-05-01T13:23:53.280Z,4928
2018-05-01T13:24:55.756Z,4712
2018-05-01T13:25:58.837Z,4544
2018-05-01T13:27:01.340Z,4032
2018-05-01T13:28:04.175Z,3856
2018-05-01T13:29:07.053Z,4164
2018-05-01T13:30:09.502Z,4324
2018-05-01T13:31:11.965Z,3836
2018-05-01T13:32:14.674Z,4004
2018-05-01T13:33:17.120Z,4300
2018-05-01T13:34:19.564Z,4544
2018-05-01T13:35:22.303Z,4508
2018-05-01T13:36:24.749Z,5440
2018-05-01T13:37:27.471Z,4884
2018-05-01T13:38:29.942Z,5292
2018-05-01T13:39:32.434Z,5264
2018-05-01T13:40:34.888Z,5816
2018-05-01T13:41:37.335Z,5040
2018-05-01T13:42:39.763Z,5096
2018-05-01T13:43:42.191Z,4872
2018-05-01T13:44:44.648Z,4040
2018-05-01T13:45:47.100Z,4632
2018-05-01T13:46:49.526Z,4384
2018-05-01T13:47:52.354Z,4384
2018-05-01T13:48:54.808Z,5412
2018-05-01T13:49:57.281Z,5020
2018-05-01T13:50:59.783Z,4408
2018-05-01T13:52:02.505Z,4916
2018-05-01T13:53:04.931Z,5380
2018-05-01T13:54:07.388Z,4180
2018-05-01T13:55:09.816Z,4124
2018-05-01T13:56:12.526Z,5164
2018-05-01T13:57:15.055Z,4420
2018-05-01T13:58:18.874Z,5344
2018-05-01T13:59:21.333Z,6288
2018-05-01T14:00:23.779Z,5740
2018-05-01T14:01:26.200Z,5996
2018-05-01T14:02:28.632Z,6520
2018-05-01T14:03:31.071Z,8280
2018-05-01T14:04:33.861Z,10540
2018-05-01T14:05:36.234Z,12372
2018-05-01T14:06:38.967Z,11760
2018-05-01T14:07:41.401Z,13916
2018-05-01T14:08:43.846Z,16164
2018-05-01T14:09:46.274Z,18176
2018-05-01T14:10:48.715Z,13980
2018-05-01T14:11:51.165Z,20864
2018-05-01T14:12:53.616Z,22272
2018-05-01T14:13:56.051Z,30176
2018-05-01T14:14:58.500Z,19840
2018-05-01T14:16:00.934Z,13912
2018-05-01T14:17:03.670Z,12092
2018-05-01T14:18:06.434Z,8436
2018-05-01T14:19:08.857Z,7220